Airfield :
LOGIN :

Register | Disclaimer

   EN    FR    IT 

 










Legend :    VFR   Marginal VFR   IFR   Intensive IFR   Very Intensive IFR
Visi :
Ceiling :
>= 8 km
>= 3000ft
5 to 8 km
1000 to 3000 ft
1500m to 5 km
500 to 1000 ft
800 to 1500m
200 to 500 ft
< 800m
< 200 ft
Symbols :   Thunderstorms  Fog  Heavy snow  Heavy precipitations  Wind > 20 kt
SIGMETs :     Misc.  Thunderstorms  Icing  Turbulence  Mountain Waves  Volcanic Ashes






- Airport Elevation : 157 ft
- IATA code : LIL


LFQQ - Lille Lesquin

CURRENT METAR :
  • 211800Z AUTO 14012KT 9000 -RA BKN005 OVC010 07/06 Q0984 TEMPO 20025G43KT 2000 RA BKN007 BKN020CB

EXPIRED METARs :
  • 211730Z AUTO 10009KT 5000 -RA BR BKN016/// BKN025/// BKN031/// ///TCU 06/05 Q0985 TEMPO 21025G40KT 2000 BKN007 BKN020CB
  • 211700Z AUTO 13008KT 6000 RA BKN011/// BKN017/// BKN025/// ///TCU 06/05 Q0987 TEMPO 21025G40KT 2000 BKN007 BKN020CB
  • 211630Z AUTO 15007KT 7000 -RA SCT020/// BKN026/// BKN034/// ///TCU 06/05 Q0989 TEMPO 21025G40KT 2000 BKN007 BKN020CB
  • 211600Z AUTO 18008KT 9999 -RA FEW018 BKN025 BKN033 06/04 Q0990 TEMPO 2000 BKN007 BKN020CB BECMG 20017G30KT

TAF TAF LFQQ
Valid from the 21 at 18:00 until the 23 at 00:00 UTC


211700Z 2118/2224 18020G30KT 9999 RA BKN020
TEMPO 2118/2123 20025G43KT 2000 RA BKN007 BKN020CB
FM212300 33012KT 9999 RA BKN008 OVC030
BECMG 2123/2201 24008KT NSW SCT020
TEMPO 2222/2224 4000 SHRA BKN015CB
ATIS : +33 3 20 16 19 54



MET'MAP, your aeronautical weather chart ! - Copyright ORBIFLY December 2007 - Disclaimer

ORBIFLY MET'MAP TEAM :

Programming & Development : Alexandra Zaïnal
Concept & original design : Baudouin d'Aumeries
Assistance for programming : Marc-Olivier Méhu
Technical & hardware support : Manuel Goepfert

Contact : metmap@orbifly.com




SOURCES & CREDITS :

   NOAA